Time;durP1;ratioP1;P1;durP2;ratioP2;P2;SDS_P1;SDS_P2;PMS_P1;PMS_P2;Temp;Humidity;BMP_temperature;BMP_pressure;BME280_temperature;BME280_humidity;BME280_pressure;Samples;Min_cycle;Max_cycle;Signal;HPM_P1;HPM_P2
2024/04/03 00:02:28;;;;;;;0.28;0.28;;;16.40;99.90;;;;;;10421002;28;20057;-58
2024/04/03 00:07:37;;;;;;;0.00;0.00;;;16.40;99.90;;;;;;10431314;28;20051;-59
2024/04/03 00:12:41;;;;;;;0.00;0.00;;;16.60;99.90;;;;;;10419406;28;20792;-59
2024/04/03 00:17:48;;;;;;;0.20;0.20;;;16.60;99.90;;;;;;10418965;28;20162;-57
2024/04/03 00:22:50;;;;;;;2.40;0.55;;;16.80;99.90;;;;;;10415105;28;20967;-60
2024/04/03 00:27:56;;;;;;;0.00;0.00;;;16.70;99.90;;;;;;10420896;28;20057;-57
2024/04/03 00:33:00;;;;;;;0.00;0.00;;;16.70;99.90;;;;;;10426191;28;20510;-56
2024/04/03 00:38:03;;;;;;;0.10;0.10;;;16.90;99.90;;;;;;10422504;28;20064;-57
2024/04/03 00:43:13;;;;;;;0.00;0.00;;;16.60;99.90;;;;;;10427815;28;20053;-57
2024/04/03 00:48:18;;;;;;;0.08;0.08;;;16.90;99.90;;;;;;10423496;28;20056;-57
2024/04/03 00:53:20;;;;;;;0.10;0.10;;;17.00;99.90;;;;;;10426866;28;20052;-57
2024/04/03 00:58:25;;;;;;;0.30;0.30;;;16.90;99.90;;;;;;10428669;28;20048;-58
2024/04/03 01:03:28;;;;;;;0.00;0.00;;;16.80;99.90;;;;;;10444671;28;20057;-57
2024/04/03 01:08:35;;;;;;;0.10;0.10;;;17.00;99.90;;;;;;10447138;28;20045;-57
2024/04/03 01:13:37;;;;;;;0.00;0.00;;;16.90;99.90;;;;;;10441882;28;20508;-57
2024/04/03 01:18:42;;;;;;;0.03;0.03;;;17.10;99.90;;;;;;10437587;28;20539;-56
2024/04/03 01:23:55;;;;;;;0.00;0.00;;;17.00;99.90;;;;;;10430034;28;20048;-58
2024/04/03 01:28:57;;;;;;;0.00;0.00;;;16.80;99.90;;;;;;10440131;28;20056;-58
2024/04/03 01:33:59;;;;;;;0.00;0.00;;;16.90;99.90;;;;;;10440259;28;20483;-57
2024/04/03 01:39:05;;;;;;;0.00;0.00;;;16.90;99.90;;;;;;10432174;28;20057;-57
2024/04/03 01:44:10;;;;;;;0.13;0.13;;;16.70;99.90;;;;;;10436225;28;20061;-56
2024/04/03 01:49:13;;;;;;;0.05;0.05;;;17.00;99.90;;;;;;10426890;28;20053;-57
2024/04/03 01:54:17;;;;;;;0.10;0.10;;;16.60;99.90;;;;;;10431325;28;20049;-57
2024/04/03 01:59:19;;;;;;;6.03;0.68;;;16.50;99.90;;;;;;10437105;28;20053;-56
2024/04/03 02:04:25;;;;;;;0.00;0.00;;;15.80;99.90;;;;;;10446302;28;20045;-58
2024/04/03 02:09:28;;;;;;;0.00;0.00;;;16.40;99.90;;;;;;10436624;28;20049;-58
2024/04/03 02:14:31;;;;;;;0.00;0.00;;;16.80;99.90;;;;;;10436814;28;20134;-58
2024/04/03 02:19:33;;;;;;;0.20;0.20;;;16.70;99.90;;;;;;10435957;28;20052;-57
2024/04/03 02:24:37;;;;;;;0.00;0.00;;;16.20;99.90;;;;;;10434711;28;20052;-57
2024/04/03 02:29:41;;;;;;;0.05;0.05;;;16.00;99.90;;;;;;10429809;28;20056;-54
2024/04/03 02:34:47;;;;;;;0.10;0.10;;;16.20;99.90;;;;;;10432062;28;20402;-57
2024/04/03 02:39:52;;;;;;;0.10;0.10;;;15.20;99.90;;;;;;10431213;28;20052;-58
2024/04/03 02:44:56;;;;;;;0.10;0.10;;;15.60;99.90;;;;;;10427654;28;20167;-57
2024/04/03 02:49:58;;;;;;;0.05;0.05;;;15.40;99.90;;;;;;10425557;28;20453;-57
2024/04/03 02:55:04;;;;;;;0.00;0.00;;;15.10;99.90;;;;;;10434456;28;20044;-58
2024/04/03 03:00:09;;;;;;;0.10;0.10;;;15.40;99.90;;;;;;10425689;28;20130;-57
2024/04/03 03:05:17;;;;;;;0.10;0.10;;;15.00;99.90;;;;;;10430482;28;20129;-57
2024/04/03 03:10:20;;;;;;;0.10;0.10;;;14.30;99.90;;;;;;10434527;28;20078;-57
2024/04/03 03:15:24;;;;;;;0.10;0.10;;;14.00;99.90;;;;;;10426131;28;20063;-56
2024/04/03 03:20:36;;;;;;;0.08;0.08;;;13.70;99.90;;;;;;10425932;28;20103;-57
2024/04/03 03:25:44;;;;;;;0.00;0.00;;;14.20;99.90;;;;;;10429764;28;20929;-56
2024/04/03 03:30:53;;;;;;;0.10;0.10;;;12.70;99.90;;;;;;10437948;28;20571;-58
2024/04/03 03:35:56;;;;;;;0.10;0.10;;;13.30;99.90;;;;;;10422574;28;20052;-57
2024/04/03 03:41:03;;;;;;;0.00;0.00;;;15.10;99.90;;;;;;10431644;28;20051;-58
2024/04/03 03:46:08;;;;;;;0.10;0.10;;;14.80;99.90;;;;;;10434216;28;20159;-55
2024/04/03 03:56:35;;;;;;;2.47;1.65;;;15.40;99.90;;;;;;10429057;28;20846;-59
2024/04/03 04:01:39;;;;;;;0.25;0.25;;;15.80;99.90;;;;;;10435488;28;20048;-55
2024/04/03 04:06:41;;;;;;;2.28;2.10;;;15.70;99.90;;;;;;10433257;28;20720;-58
2024/04/03 04:11:48;;;;;;;0.10;0.10;;;15.50;99.90;;;;;;10437035;28;20049;-58
2024/04/03 04:16:52;;;;;;;0.10;0.10;;;16.20;99.90;;;;;;10437232;28;20041;-56
2024/04/03 04:21:54;;;;;;;1.08;0.98;;;15.60;99.90;;;;;;10432730;28;20877;-57
2024/04/03 04:27:02;;;;;;;0.00;0.00;;;15.90;99.90;;;;;;10428657;28;20044;-56
2024/04/03 04:32:05;;;;;;;0.80;0.80;;;16.00;99.90;;;;;;10443359;28;20143;-56
2024/04/03 04:37:10;;;;;;;0.00;0.00;;;16.00;99.90;;;;;;10436242;28;20075;-59
2024/04/03 04:42:13;;;;;;;0.08;0.08;;;16.40;99.90;;;;;;10436000;28;20047;-54
2024/04/03 04:47:15;;;;;;;0.38;0.38;;;16.50;99.90;;;;;;10433691;28;20107;-57
2024/04/03 04:52:20;;;;;;;0.20;0.20;;;16.50;99.90;;;;;;10438993;28;20128;-57
2024/04/03 04:57:29;;;;;;;0.08;0.08;;;17.10;99.90;;;;;;10438897;28;20068;-55
2024/04/03 05:02:32;;;;;;;0.00;0.00;;;17.10;99.90;;;;;;10444166;28;20143;-56
2024/04/03 05:07:34;;;;;;;0.00;0.00;;;17.10;99.90;;;;;;10427343;28;20040;-57
2024/04/03 05:12:42;;;;;;;0.00;0.00;;;17.20;99.90;;;;;;10444643;28;20057;-55
2024/04/03 05:17:45;;;;;;;0.17;0.17;;;17.30;99.90;;;;;;10441245;28;20439;-55
2024/04/03 05:22:47;;;;;;;0.20;0.20;;;17.20;99.90;;;;;;10432831;28;20049;-57
2024/04/03 05:27:54;;;;;;;0.00;0.00;;;16.80;99.90;;;;;;10435416;28;20840;-59
2024/04/03 05:32:56;;;;;;;0.10;0.10;;;16.90;99.90;;;;;;10426883;28;20876;-58
2024/04/03 05:37:58;;;;;;;0.10;0.10;;;17.00;99.90;;;;;;10431463;28;20073;-58
2024/04/03 05:43:01;;;;;;;0.35;0.20;;;17.20;99.90;;;;;;10430766;28;20057;-57
2024/04/03 05:48:07;;;;;;;0.05;0.05;;;17.30;99.90;;;;;;10428276;28;20428;-60
2024/04/03 05:53:09;;;;;;;0.00;0.00;;;17.50;99.90;;;;;;10433990;28;20535;-58
2024/04/03 05:58:21;;;;;;;0.00;0.00;;;17.20;99.90;;;;;;10424963;28;20864;-58
2024/04/03 06:03:24;;;;;;;0.00;0.00;;;17.00;99.90;;;;;;10429455;28;20674;-57
2024/04/03 06:08:26;;;;;;;0.03;0.03;;;17.20;99.90;;;;;;10432362;28;20045;-60
2024/04/03 06:13:30;;;;;;;0.22;0.22;;;17.30;99.90;;;;;;10431271;28;20463;-58
2024/04/03 06:18:34;;;;;;;0.20;0.20;;;17.00;99.90;;;;;;10429798;28;20960;-58
2024/04/03 06:23:36;;;;;;;0.00;0.00;;;17.10;99.90;;;;;;10428155;28;20067;-58
2024/04/03 06:28:44;;;;;;;0.10;0.10;;;17.10;99.90;;;;;;10429100;28;20044;-58
2024/04/03 06:33:50;;;;;;;1.45;0.75;;;17.50;99.90;;;;;;10413713;28;20080;-57
2024/04/03 06:38:52;;;;;;;0.10;0.10;;;16.80;99.90;;;;;;10431273;28;20114;-58
2024/04/03 06:43:58;;;;;;;0.00;0.00;;;17.40;99.90;;;;;;10421779;28;20057;-58
2024/04/03 06:49:01;;;;;;;0.00;0.00;;;17.30;99.90;;;;;;10424018;28;20915;-57
2024/04/03 06:54:03;;;;;;;0.00;0.00;;;17.20;99.90;;;;;;10426881;28;20053;-59
2024/04/03 06:59:09;;;;;;;0.43;0.43;;;17.60;99.90;;;;;;10418900;28;20493;-57
2024/04/03 07:04:11;;;;;;;1.65;0.43;;;16.50;99.90;;;;;;10427298;28;20052;-57
2024/04/03 07:09:13;;;;;;;0.20;0.20;;;16.90;99.90;;;;;;10421570;28;20142;-58
2024/04/03 07:14:19;;;;;;;0.00;0.00;;;17.20;99.90;;;;;;10424148;28;20468;-60
2024/04/03 07:19:21;;;;;;;0.47;0.47;;;16.10;99.90;;;;;;10426640;28;20048;-58
2024/04/03 07:24:24;;;;;;;0.40;0.40;;;16.80;99.90;;;;;;10431470;28;20052;-58
2024/04/03 07:29:27;;;;;;;0.10;0.10;;;16.00;99.90;;;;;;10422409;28;20040;-58
2024/04/03 07:34:29;;;;;;;0.10;0.10;;;16.50;99.90;;;;;;10428523;28;20071;-58
2024/04/03 07:39:31;;;;;;;0.00;0.00;;;16.70;99.90;;;;;;10426864;28;20056;-58
2024/04/03 07:44:34;;;;;;;0.10;0.10;;;16.30;99.90;;;;;;10429612;28;20467;-57
2024/04/03 07:49:37;;;;;;;0.00;0.00;;;17.10;99.90;;;;;;10425625;28;20052;-58
2024/04/03 07:54:39;;;;;;;0.00;0.00;;;17.20;99.90;;;;;;10428536;28;20048;-58
2024/04/03 07:59:42;;;;;;;0.00;0.00;;;16.40;99.90;;;;;;10427289;28;20072;-58
2024/04/03 08:04:44;;;;;;;2.05;1.17;;;16.80;99.90;;;;;;10427974;28;20088;-58
2024/04/03 08:09:48;;;;;;;0.00;0.00;;;16.80;99.90;;;;;;10428075;28;20060;-57
2024/04/03 08:14:52;;;;;;;2.10;1.08;;;16.30;99.90;;;;;;10424870;28;20139;-59
2024/04/03 08:19:55;;;;;;;0.50;0.50;;;16.60;99.90;;;;;;10422511;28;20417;-56
2024/04/03 08:24:58;;;;;;;0.10;0.10;;;15.40;99.90;;;;;;10426584;28;20063;-57
2024/04/03 08:30:02;;;;;;;0.08;0.08;;;16.10;99.90;;;;;;10424218;28;20255;-58
2024/04/03 08:35:05;;;;;;;0.52;0.52;;;16.10;99.90;;;;;;10427453;28;20875;-58
2024/04/03 08:40:10;;;;;;;;;;;16.80;99.90;;;;;;10428900;28;20040;-58
2024/04/03 08:45:16;;;;;;;0.00;0.00;;;17.00;99.90;;;;;;10433592;28;19931;-58
2024/04/03 08:50:22;;;;;;;0.10;0.10;;;17.60;99.90;;;;;;10433720;28;20601;-55
2024/04/03 08:55:35;;;;;;;0.10;0.10;;;16.50;99.90;;;;;;10422918;28;20453;-57
2024/04/03 09:00:46;;;;;;;0.22;0.22;;;15.60;99.90;;;;;;10421381;28;20044;-58
2024/04/03 09:05:52;;;;;;;0.03;0.03;;;16.10;99.90;;;;;;10424638;28;20057;-58
2024/04/03 09:10:56;;;;;;;1.45;1.17;;;16.50;99.90;;;;;;10425651;28;20060;-57
2024/04/03 09:16:01;;;;;;;0.00;0.00;;;16.10;99.90;;;;;;10429080;28;20068;-57
2024/04/03 09:21:06;;;;;;;0.20;0.20;;;16.20;99.90;;;;;;10432599;28;20041;-56
2024/04/03 09:26:18;;;;;;;0.20;0.20;;;16.20;99.90;;;;;;10435517;28;20049;-58
2024/04/03 09:31:24;;;;;;;0.10;0.10;;;15.80;99.90;;;;;;10434485;28;20048;-59
2024/04/03 09:36:27;;;;;;;0.43;0.32;;;16.60;99.90;;;;;;10431090;28;20428;-58
2024/04/03 09:41:31;;;;;;;0.20;0.20;;;16.50;99.90;;;;;;10428578;28;20056;-58
2024/04/03 09:46:47;;;;;;;0.10;0.10;;;15.90;99.90;;;;;;10430272;28;20048;-56
2024/04/03 09:51:52;;;;;;;0.10;0.10;;;16.70;99.90;;;;;;10430935;28;20075;-58
2024/04/03 09:56:54;;;;;;;1.17;0.85;;;17.50;99.90;;;;;;10424872;28;20088;-59
2024/04/03 10:02:00;;;;;;;0.00;0.00;;;16.70;99.90;;;;;;10433129;28;20057;-56
2024/04/03 10:07:03;;;;;;;0.00;0.00;;;15.70;99.90;;;;;;10430778;28;20057;-61
2024/04/03 10:12:07;;;;;;;0.00;0.00;;;16.50;99.90;;;;;;10429515;28;21472;-57
2024/04/03 10:17:16;;;;;;;0.20;0.20;;;16.20;99.90;;;;;;10428363;28;20048;-56
2024/04/03 10:22:18;;;;;;;0.00;0.00;;;16.30;99.90;;;;;;10431334;28;20048;-57
2024/04/03 10:27:20;;;;;;;0.00;0.00;;;16.10;99.90;;;;;;10429472;28;20136;-59
2024/04/03 10:32:24;;;;;;;0.00;0.00;;;15.10;99.90;;;;;;10427287;28;20098;-57
2024/04/03 10:37:26;;;;;;;0.10;0.10;;;15.70;99.90;;;;;;10441258;28;20072;-54
2024/04/03 10:42:30;;;;;;;0.00;0.00;;;15.40;99.90;;;;;;10441198;28;20037;-57
2024/04/03 10:47:33;;;;;;;0.13;0.13;;;16.40;99.90;;;;;;10428156;28;20056;-57
2024/04/03 10:52:44;;;;;;;0.20;0.20;;;15.40;99.90;;;;;;10434286;28;20071;-53
2024/04/03 10:57:52;;;;;;;0.10;0.10;;;15.80;99.90;;;;;;10439450;28;20163;-54
2024/04/03 11:03:01;;;;;;;0.00;0.00;;;15.00;99.90;;;;;;10448750;28;20054;-56
2024/04/03 11:08:05;;;;;;;0.10;0.10;;;15.20;99.90;;;;;;10430945;28;20044;-56
2024/04/03 11:13:11;;;;;;;0.10;0.10;;;14.40;99.90;;;;;;10428346;28;20082;-55
2024/04/03 11:18:19;;;;;;;0.10;0.10;;;14.40;99.90;;;;;;10424077;28;20055;-58
2024/04/03 11:23:26;;;;;;;0.10;0.10;;;14.70;99.90;;;;;;10428804;28;20199;-57
2024/04/03 11:28:29;;;;;;;0.20;0.20;;;14.40;99.90;;;;;;10427257;28;20547;-58
2024/04/03 11:33:34;;;;;;;0.00;0.00;;;15.10;99.90;;;;;;10423684;28;20045;-58
2024/04/03 11:38:36;;;;;;;0.10;0.10;;;15.30;99.90;;;;;;10415128;28;20508;-57
2024/04/03 11:43:40;;;;;;;0.10;0.10;;;15.30;99.90;;;;;;10416682;28;20640;-53
2024/04/03 11:48:43;;;;;;;0.10;0.10;;;15.10;99.90;;;;;;10419130;28;20037;-58
2024/04/03 11:53:46;;;;;;;0.13;0.13;;;14.70;99.90;;;;;;10431096;28;20057;-57
2024/04/03 11:58:48;;;;;;;0.00;0.00;;;15.10;99.90;;;;;;10420988;28;20033;-59
2024/04/03 12:03:52;;;;;;;4.37;0.97;;;15.10;99.90;;;;;;10424108;28;20612;-55
2024/04/03 12:08:54;;;;;;;0.10;0.10;;;15.20;99.90;;;;;;10424771;28;20053;-59
2024/04/03 12:13:56;;;;;;;0.37;0.37;;;15.90;99.90;;;;;;10426315;28;20053;-64
2024/04/03 12:19:16;;;;;;;0.00;0.00;;;16.60;99.90;;;;;;10424822;28;22958;-58
2024/04/03 12:24:20;;;;;;;0.10;0.10;;;17.40;99.90;;;;;;10424229;28;20124;-56
2024/04/03 12:29:25;;;;;;;0.10;0.10;;;17.30;99.90;;;;;;10426266;28;20099;-56
2024/04/03 12:34:29;;;;;;;0.85;0.35;;;17.40;99.90;;;;;;10423623;28;20069;-57
2024/04/03 12:39:31;;;;;;;4.47;2.67;;;16.60;99.90;;;;;;10421562;28;20756;-59
2024/04/03 12:44:34;;;;;;;6.17;3.40;;;17.80;99.90;;;;;;10411750;28;20055;-58
2024/04/03 12:49:41;;;;;;;6.47;3.20;;;17.90;99.90;;;;;;10422750;28;20060;-57
2024/04/03 12:54:43;;;;;;;5.68;2.30;;;17.40;99.90;;;;;;10430401;28;20146;-57
2024/04/03 12:59:45;;;;;;;6.63;2.85;;;18.30;99.90;;;;;;10419552;28;20404;-58
2024/04/03 13:04:48;;;;;;;11.38;4.22;;;17.00;99.90;;;;;;10420696;28;20059;-58
2024/04/03 13:09:54;;;;;;;11.65;3.63;;;16.60;99.90;;;;;;10424309;28;20049;-58
2024/04/03 13:14:56;;;;;;;8.65;3.83;;;16.80;99.90;;;;;;10426378;28;20064;-57
2024/04/03 13:19:59;;;;;;;6.80;4.82;;;16.90;99.90;;;;;;10430371;28;20037;-59
2024/04/03 13:25:01;;;;;;;0.10;0.10;;;15.40;99.90;;;;;;10425046;28;20101;-58
2024/04/03 13:30:04;;;;;;;0.00;0.00;;;15.20;99.90;;;;;;10421420;28;20556;-56
2024/04/03 13:35:07;;;;;;;0.20;0.20;;;14.60;99.90;;;;;;10425085;28;20055;-56
2024/04/03 13:40:11;;;;;;;0.08;0.08;;;14.70;99.90;;;;;;10426539;28;20072;-57
2024/04/03 13:45:13;;;;;;;0.10;0.10;;;14.50;99.90;;;;;;10430242;28;20087;-61
2024/04/03 13:50:18;;;;;;;0.10;0.10;;;14.10;99.90;;;;;;10433644;28;20147;-58
2024/04/03 13:55:20;;;;;;;7.28;1.30;;;13.60;99.90;;;;;;10427163;28;20143;-57
2024/04/03 14:00:25;;;;;;;0.07;0.07;;;13.20;99.90;;;;;;10423136;28;20825;-60
2024/04/03 14:05:32;;;;;;;0.10;0.10;;;13.40;99.90;;;;;;10423459;28;22979;-60
2024/04/03 14:10:34;;;;;;;0.30;0.30;;;14.20;99.90;;;;;;10419912;28;20048;-58
2024/04/03 14:15:36;;;;;;;0.00;0.00;;;14.20;99.90;;;;;;10423989;28;20731;-60
2024/04/03 14:20:39;;;;;;;10.93;2.67;;;14.60;99.90;;;;;;10426967;28;20052;-60
2024/04/03 14:25:43;;;;;;;9.38;2.00;;;15.00;99.90;;;;;;10423639;28;20076;-61
2024/04/03 14:30:47;;;;;;;10.63;1.45;;;15.30;99.90;;;;;;10417335;28;20049;-59
2024/04/03 14:35:52;;;;;;;16.48;2.47;;;15.90;99.90;;;;;;10410928;28;20083;-59
2024/04/03 14:40:54;;;;;;;18.77;1.92;;;16.30;99.90;;;;;;10420202;28;20199;-60
2024/04/03 14:46:00;;;;;;;8.93;1.15;;;16.50;99.90;;;;;;10418914;28;20056;-61
2024/04/03 14:51:04;;;;;;;8.57;2.00;;;16.40;99.90;;;;;;10416978;28;20501;-58
2024/04/03 14:56:06;;;;;;;9.32;1.85;;;16.40;99.90;;;;;;10420149;28;20640;-60
2024/04/03 15:01:11;;;;;;;12.45;2.20;;;16.70;99.90;;;;;;10419361;28;20714;-60
2024/04/03 15:06:15;;;;;;;6.00;1.38;;;16.40;99.90;;;;;;10421944;28;20603;-60
2024/04/03 15:11:17;;;;;;;7.75;1.50;;;16.50;99.90;;;;;;10421657;28;20063;-54
2024/04/03 15:16:20;;;;;;;9.07;2.30;;;17.00;99.90;;;;;;10425532;28;20080;-62
2024/04/03 15:21:24;;;;;;;13.43;2.30;;;16.90;99.90;;;;;;10419806;28;20052;-60
2024/04/03 15:26:29;;;;;;;15.48;2.70;;;16.80;99.90;;;;;;10424272;28;20057;-60
2024/04/03 15:31:34;;;;;;;13.05;2.58;;;15.20;99.90;;;;;;10418298;28;20091;-61
2024/04/03 15:36:38;;;;;;;16.35;2.75;;;14.90;99.90;;;;;;10424819;28;20079;-60
2024/04/03 15:41:42;;;;;;;18.33;2.65;;;14.70;99.90;;;;;;10414034;28;20376;-57
2024/04/03 15:46:46;;;;;;;12.37;1.57;;;14.70;99.90;;;;;;10421663;28;20045;-62
2024/04/03 15:51:54;;;;;;;13.45;2.50;;;15.20;99.90;;;;;;10420592;28;20052;-61
2024/04/03 15:56:58;;;;;;;13.98;2.67;;;15.30;99.90;;;;;;10424022;28;20060;-61
2024/04/03 16:02:00;;;;;;;15.95;2.65;;;14.20;99.90;;;;;;10430180;28;20052;-61
2024/04/03 16:07:04;;;;;;;8.52;2.05;;;14.40;99.90;;;;;;10420529;28;20061;-60
2024/04/03 16:12:11;;;;;;;19.27;3.58;;;14.20;99.90;;;;;;10416439;28;20049;-60
2024/04/03 16:17:16;;;;;;;16.45;2.40;;;13.90;99.90;;;;;;10415955;28;20087;-61
2024/04/03 16:22:21;;;;;;;14.70;1.77;;;13.90;99.90;;;;;;10418594;28;20168;-60
2024/04/03 16:27:25;;;;;;;12.23;2.47;;;14.00;99.90;;;;;;10423045;28;20104;-61
2024/04/03 16:32:27;;;;;;;20.77;2.42;;;13.50;99.90;;;;;;10421692;28;20800;-58
2024/04/03 16:37:30;;;;;;;22.67;3.40;;;13.50;99.90;;;;;;10421487;28;21022;-61
2024/04/03 16:42:32;;;;;;;14.40;2.17;;;13.10;99.90;;;;;;10420630;28;20075;-61
2024/04/03 16:47:34;;;;;;;12.35;3.33;;;13.10;99.90;;;;;;10423580;28;21388;-60
2024/04/03 16:52:38;;;;;;;15.15;2.65;;;13.10;99.90;;;;;;10423351;28;20041;-60
2024/04/03 16:57:42;;;;;;;14.40;3.50;;;12.90;99.90;;;;;;10428479;28;20103;-62
2024/04/03 17:02:45;;;;;;;22.02;3.70;;;12.70;99.90;;;;;;10420629;28;20049;-63
2024/04/03 17:07:50;;;;;;;22.97;4.00;;;12.80;99.90;;;;;;10413710;28;20053;-56
2024/04/03 17:12:54;;;;;;;14.20;1.83;;;12.60;99.90;;;;;;10420987;28;20049;-59
2024/04/03 17:17:57;;;;;;;27.13;3.78;;;12.40;99.90;;;;;;10419474;28;20909;-56
2024/04/03 17:23:02;;;;;;;19.90;3.08;;;12.50;99.90;;;;;;10415456;28;20080;-59
2024/04/03 17:28:05;;;;;;;19.80;3.97;;;12.40;99.90;;;;;;10419207;28;20057;-56
2024/04/03 17:33:09;;;;;;;19.48;4.15;;;12.40;99.90;;;;;;10411988;28;20064;-54
2024/04/03 17:38:16;;;;;;;25.98;4.45;;;12.10;99.90;;;;;;10414519;28;20080;-51
2024/04/03 17:43:17;;;;;;;29.20;6.05;;;12.00;99.90;;;;;;10420353;28;20052;-52
2024/04/03 17:48:19;;;;;;;31.38;6.07;;;12.00;99.90;;;;;;10417484;28;20057;-50
2024/04/03 17:53:24;;;;;;;25.27;3.75;;;11.90;99.90;;;;;;10415436;28;20298;-50
2024/04/03 17:58:28;;;;;;;30.30;4.88;;;12.00;99.90;;;;;;10419989;28;20101;-51
2024/04/03 18:03:31;;;;;;;34.67;6.22;;;12.10;99.90;;;;;;10418407;28;20041;-51
2024/04/03 18:08:34;;;;;;;34.38;7.10;;;11.90;99.90;;;;;;10415612;28;20211;-50
2024/04/03 18:13:37;;;;;;;30.85;5.55;;;11.60;99.90;;;;;;10421096;28;20778;-53
2024/04/03 18:18:40;;;;;;;45.33;6.40;;;11.50;99.90;;;;;;10417906;28;20060;-55
2024/04/03 18:23:43;;;;;;;56.05;9.00;;;11.60;99.90;;;;;;10419428;28;20474;-53
2024/04/03 18:28:50;;;;;;;46.97;7.07;;;11.60;99.90;;;;;;10426742;28;20096;-54
2024/04/03 18:33:56;;;;;;;43.97;6.40;;;11.60;99.90;;;;;;10417877;28;20052;-48
2024/04/03 18:39:02;;;;;;;44.83;7.05;;;11.60;99.90;;;;;;10423816;28;20611;-50
2024/04/03 18:44:04;;;;;;;29.95;5.40;;;11.80;99.90;;;;;;10416936;28;20488;-52
2024/04/03 18:49:09;;;;;;;62.20;9.13;;;11.70;99.90;;;;;;10421384;28;20163;-51
2024/04/03 18:54:15;;;;;;;50.65;5.72;;;11.50;99.90;;;;;;10417747;28;20098;-51
2024/04/03 18:59:18;;;;;;;21.33;4.22;;;11.50;99.90;;;;;;10420885;28;20747;-54
2024/04/03 19:04:20;;;;;;;;;;;11.80;99.90;;;;;;10422775;28;20051;-52
2024/04/03 19:09:27;;;;;;;34.72;4.78;;;11.40;99.90;;;;;;10416116;28;20007;-52
2024/04/03 19:14:29;;;;;;;56.13;8.32;;;11.70;99.90;;;;;;10413715;28;20169;-50
2024/04/03 19:19:34;;;;;;;53.95;8.48;;;11.50;99.90;;;;;;10416999;28;20167;-54
2024/04/03 19:24:41;;;;;;;37.30;5.18;;;11.20;99.90;;;;;;10416647;28;20418;-52
2024/04/03 19:29:45;;;;;;;42.10;6.10;;;11.30;99.90;;;;;;10418045;28;20139;-53
2024/04/03 19:34:54;;;;;;;29.13;6.05;;;11.10;99.90;;;;;;10419651;28;20053;-52
2024/04/03 19:39:58;;;;;;;54.30;7.28;;;11.40;99.90;;;;;;10417979;28;20060;-56
2024/04/03 19:45:01;;;;;;;33.45;5.88;;;11.20;99.90;;;;;;10411447;28;20093;-52
2024/04/03 19:50:05;;;;;;;42.28;6.03;;;11.20;99.90;;;;;;10412925;28;20720;-52
2024/04/03 19:55:10;;;;;;;35.13;5.07;;;11.20;99.90;;;;;;10413921;28;20119;-52
2024/04/03 20:00:16;;;;;;;49.90;8.02;;;11.20;99.90;;;;;;10414739;28;20368;-53
2024/04/03 20:05:21;;;;;;;40.15;6.07;;;11.30;99.90;;;;;;10414100;28;20150;-53
2024/04/03 20:10:28;;;;;;;46.78;8.75;;;11.30;99.90;;;;;;10418556;28;20095;-50
2024/04/03 20:15:30;;;;;;;46.03;7.25;;;11.20;99.90;;;;;;10416544;28;20052;-50
2024/04/03 20:20:34;;;;;;;43.30;7.85;;;11.40;99.90;;;;;;10416131;28;20052;-52
2024/04/03 20:25:45;;;;;;;47.40;7.47;;;11.00;99.90;;;;;;10414113;28;20057;-52
2024/04/03 20:30:47;;;;;;;43.20;5.55;;;11.10;99.90;;;;;;10415886;28;20653;-48
2024/04/03 20:35:55;;;;;;;36.30;4.97;;;11.00;99.90;;;;;;10418314;28;20508;-50
2024/04/03 20:41:03;;;;;;;51.03;8.50;;;10.90;99.90;;;;;;10425259;28;20057;-50
2024/04/03 20:46:05;;;;;;;36.25;4.95;;;10.80;99.90;;;;;;10419269;28;20111;-49
2024/04/03 20:51:09;;;;;;;43.80;7.20;;;11.20;99.90;;;;;;10424664;28;20510;-60
2024/04/03 20:56:15;;;;;;;61.33;8.95;;;11.10;99.90;;;;;;10431145;28;20518;-47
2024/04/03 21:01:18;;;;;;;45.67;7.30;;;10.80;99.90;;;;;;10435364;28;20575;-50
2024/04/03 21:06:25;;;;;;;48.78;6.78;;;10.90;99.90;;;;;;10428599;28;20442;-49
2024/04/03 21:11:28;;;;;;;46.65;6.00;;;10.70;99.90;;;;;;10437342;28;20056;-50
2024/04/03 21:16:30;;;;;;;57.38;8.32;;;11.10;99.90;;;;;;10436570;28;20218;-52
2024/04/03 21:21:33;;;;;;;52.93;8.13;;;10.90;99.90;;;;;;10428141;28;20053;-57
2024/04/03 21:26:38;;;;;;;33.07;5.07;;;11.10;99.90;;;;;;10436597;28;20048;-51
2024/04/03 21:31:40;;;;;;;32.42;5.05;;;10.90;99.90;;;;;;10430342;28;20063;-49
2024/04/03 21:36:42;;;;;;;48.43;5.07;;;10.90;99.90;;;;;;10435693;28;20057;-50
2024/04/03 21:41:50;;;;;;;50.40;9.23;;;11.00;99.90;;;;;;10436308;28;20060;-53
2024/04/03 21:46:52;;;;;;;45.42;5.47;;;11.00;99.90;;;;;;10437359;28;20076;-52
2024/04/03 21:51:55;;;;;;;35.53;3.93;;;10.90;99.90;;;;;;10431401;28;20740;-52
2024/04/03 21:56:58;;;;;;;37.37;4.97;;;11.10;99.90;;;;;;10410875;28;20092;-50
2024/04/03 22:02:04;;;;;;;30.83;4.47;;;11.20;99.90;;;;;;10426861;28;20483;-54
2024/04/03 22:07:09;;;;;;;47.88;8.10;;;11.00;99.90;;;;;;10434375;28;20053;-53
2024/04/03 22:12:16;;;;;;;44.25;6.80;;;10.80;99.90;;;;;;10431027;28;20041;-53
2024/04/03 22:17:18;;;;;;;34.42;4.85;;;10.80;99.90;;;;;;10423370;28;20503;-55
2024/04/03 22:22:21;;;;;;;27.58;3.70;;;10.70;99.90;;;;;;10432049;28;20076;-52
2024/04/03 22:27:30;;;;;;;34.35;5.20;;;10.60;99.90;;;;;;10420337;28;20059;-52
2024/04/03 22:32:32;;;;;;;50.25;6.50;;;10.60;99.90;;;;;;10427536;28;20828;-50
2024/04/03 22:37:34;;;;;;;38.22;4.50;;;10.50;99.90;;;;;;10431153;28;20049;-51
2024/04/03 22:42:40;;;;;;;44.78;6.50;;;10.70;99.90;;;;;;10427465;28;20048;-52
2024/04/03 22:47:45;;;;;;;37.65;7.22;;;10.60;99.90;;;;;;10430385;28;20052;-50
2024/04/03 22:52:50;;;;;;;18.50;3.20;;;10.60;99.90;;;;;;10428683;28;20060;-53
2024/04/03 22:57:53;;;;;;;51.50;7.60;;;11.00;99.90;;;;;;10431166;28;20053;-52
2024/04/03 23:02:55;;;;;;;34.38;4.20;;;10.70;99.90;;;;;;10426378;28;20058;-52
2024/04/03 23:07:57;;;;;;;26.07;4.80;;;10.50;99.90;;;;;;10430407;28;20585;-52
2024/04/03 23:13:04;;;;;;;21.10;3.40;;;10.70;99.90;;;;;;10432924;28;20832;-52
2024/04/03 23:18:08;;;;;;;23.38;3.28;;;10.60;99.90;;;;;;10431120;28;20063;-50
2024/04/03 23:23:10;;;;;;;29.77;5.20;;;10.50;99.90;;;;;;10432857;28;20529;-49
2024/04/03 23:28:14;;;;;;;20.33;3.73;;;10.40;99.90;;;;;;10431394;28;20044;-52
2024/04/03 23:33:16;;;;;;;24.52;4.22;;;10.60;99.90;;;;;;10423354;28;20053;-50
2024/04/03 23:38:18;;;;;;;15.15;3.45;;;10.30;99.90;;;;;;10429759;28;22749;-50
2024/04/03 23:43:25;;;;;;;21.63;3.90;;;10.60;99.90;;;;;;10427721;28;20045;-55
2024/04/03 23:48:27;;;;;;;17.58;2.70;;;10.40;99.90;;;;;;10428020;28;20182;-50
2024/04/03 23:53:32;;;;;;;30.23;4.33;;;10.30;99.90;;;;;;10427248;28;20095;-51
2024/04/03 23:58:40;;;;;;;16.95;2.13;;;10.50;99.90;;;;;;10422588;28;20064;-53
